| time (UTC) | temp F | wind direction | speed knots | gust knots | rain 1hr in | rain 24hr in | rain mn in | humidity % | barometer mb |
| 20260502220026 | 64 | 233 | 6.1 | 0.0 | 0.00 | 0.00 | 0.00 | 39 | 1010.6 |
| 20260502214529 | 64 | 265 | 6.1 | 0.0 | 0.00 | 0.00 | 0.00 | 33 | 1010.5 |
| 20260502213022 | 65 | 292 | 6.1 | 0.0 | 0.00 | 0.00 | 0.00 | 36 | 1010.5 |
| 20260502211529 | 65 | 239 | 6.1 | 0.0 | 0.00 | 0.00 | 0.00 | 36 | 1010.6 |
| 20260502210020 | 65 | 274 | 6.1 | 0.0 | 0.00 | 0.00 | 0.00 | 35 | 1010.7 |
| 20260502204519 | 66 | 187 | 5.2 | 0.0 | 0.00 | 0.00 | 0.00 | 33 | 1010.7 |
| 20260502203017 | 66 | 244 | 5.2 | 0.0 | 0.00 | 0.00 | 0.00 | 35 | 1011.0 |
| 20260502201516 | 66 | 267 | 5.2 | 0.0 | 0.00 | 0.00 | 0.00 | 36 | 1011.2 |
| 20260502200014 | 66 | 282 | 6.1 | 0.0 | 0.00 | 0.00 | 0.00 | 33 | 1011.5 |
| 20260502194511 | 66 | 284 | 5.2 | 0.0 | 0.00 | 0.00 | 0.00 | 36 | 1011.9 |
| 20260502193009 | 66 | 263 | 5.2 | 0.0 | 0.00 | 0.00 | 0.00 | 36 | 1012.0 |
| 20260502191514 | 65 | 234 | 6.1 | 0.0 | 0.00 | 0.00 | 0.00 | 36 | 1012.4 |
| 20260502190002 | 64 | 281 | 6.1 | 0.0 | 0.00 | 0.00 | 0.00 | 37 | 1012.7 |
| 20260502184604 | 62 | 264 | 5.2 | 0.0 | 0.00 | 0.00 | 0.00 | 38 | 1013.1 |
| 20260502183103 | 62 | 267 | 6.1 | 0.0 | 0.00 | 0.00 | 0.00 | 41 | 1013.4 |
| 20260502181557 | 64 | 246 | 5.2 | 0.0 | 0.00 | 0.00 | 0.00 | 41 | 1013.5 |
| 20260502180119 | 63 | 205 | 6.1 | 0.0 | 0.00 | 0.00 | 0.00 | 39 | 1013.9 |
| 20260502163036 | 58 | 252 | 6.1 | 0.0 | 0.00 | 0.00 | 0.00 | 42 | 1015.3 |
| 20260502161533 | 58 | 196 | 6.1 | 0.0 | 0.00 | 0.00 | 0.00 | 43 | 1015.6 |
| 20260502151521 | 54 | 247 | 4.3 | 0.0 | 0.00 | 0.00 | 0.00 | 47 | 1016.6 |
| 20260502123039 | 40 | 229 | 1.7 | 0.0 | 0.00 | 0.00 | 0.00 | 69 | 1018.3 |
| 20260502121538 | 39 | 234 | 0.9 | 0.0 | 0.00 | 0.00 | 0.00 | 72 | 1018.4 |
| 20260502114538 | 36 | 271 | 0.0 | 0.0 | 0.00 | 0.00 | 0.00 | 75 | 1018.5 |
| 20260502113036 | 33 | 271 | 0.0 | 0.0 | 0.00 | 0.00 | 0.00 | 75 | 1018.4 |
| 20260502111536 | 33 | 271 | 0.0 | 0.0 | 0.00 | 0.00 | 0.00 | 75 | 1018.5 |
| 20260502110034 | 33 | 271 | 0.0 | 0.0 | 0.00 | 0.00 | 0.00 | 75 | 1018.6 |
| 20260502104541 | 33 | 271 | 0.0 | 0.0 | 0.00 | 0.00 | 0.00 | 75 | 1018.5 |
| 20260502103039 | 33 | 271 | 0.0 | 0.0 | 0.00 | 0.00 | 0.00 | 75 | 1018.7 |
| 20260502101538 | 33 | 271 | 0.0 | 0.0 | 0.00 | 0.00 | 0.00 | 75 | 1018.7 |
| 20260502091524 | 34 | 271 | 0.0 | 0.0 | 0.00 | 0.00 | 0.00 | 75 | 1018.8 |
| 20260502071511 | 38 | 271 | 0.0 | 0.0 | 0.00 | 0.00 | 0.00 | 68 | 1019.0 |
| 20260502070014 | 40 | 271 | 0.0 | 0.0 | 0.00 | 0.00 | 0.00 | 65 | 1019.1 |
| 20260502064515 | 40 | 271 | 0.0 | 0.0 | 0.00 | 0.00 | 0.00 | 65 | 1019.1 |
| 20260502063009 | 40 | 271 | 0.0 | 0.0 | 0.00 | 0.00 | 0.00 | 66 | 1019.2 |
| 20260502061505 | 40 | 271 | 0.0 | 0.0 | 0.00 | 0.00 | 0.00 | 64 | 1019.2 |
| 20260502060008 | 40 | 271 | 0.0 | 0.0 | 0.00 | 0.00 | 0.00 | 65 | 1019.3 |
| 20260502054502 | 41 | 271 | 0.0 | 0.0 | 0.00 | 0.00 | 0.00 | 62 | 1019.2 |
| 20260502053002 | 40 | 271 | 0.0 | 0.0 | 0.00 | 0.00 | 0.00 | 62 | 1019.2 |
| 20260502051604 | 40 | 271 | 0.0 | 0.0 | 0.00 | 0.00 | 0.00 | 62 | 1019.2 |
| 20260502050101 | 41 | 271 | 0.0 | 0.0 | 0.00 | 0.00 | 0.00 | 62 | 1019.2 |
| 20260502044558 | 41 | 271 | 0.0 | 0.0 | 0.00 | 0.00 | 0.00 | 61 | 1019.3 |
| 20260502043114 | 41 | 271 | 0.9 | 0.0 | 0.00 | 0.00 | 0.00 | 61 | 1019.3 |
| 20260502041557 | 42 | 271 | 0.0 | 0.0 | 0.00 | 0.00 | 0.00 | 60 | 1019.3 |
| 20260502040057 | 43 | 271 | 0.0 | 0.0 | 0.00 | 0.00 | 0.00 | 60 | 1019.3 |
| 20260502034557 | 44 | 271 | 0.0 | 0.0 | 0.00 | 0.00 | 0.00 | 58 | 1019.4 |
| 20260502033057 | 44 | 268 | 0.0 | 0.0 | 0.00 | 0.00 | 0.00 | 56 | 1019.4 |
| 20260502031557 | 46 | 255 | 0.0 | 0.0 | 0.00 | 0.00 | 0.00 | 55 | 1019.3 |
| 20260502030055 | 46 | 269 | 1.7 | 0.0 | 0.00 | 0.00 | 0.00 | 53 | 1019.3 |
| 20260502024554 | 47 | 276 | 1.7 | 0.0 | 0.00 | 0.00 | 0.00 | 52 | 1019.2 |
| 20260502023057 | 47 | 273 | 3.5 | 0.0 | 0.00 | 0.00 | 0.00 | 52 | 1019.1 |
| 20260502021554 | 48 | 275 | 2.6 | 0.0 | 0.00 | 0.00 | 0.00 | 50 | 1019.1 |
| 20260502020053 | 49 | 276 | 2.6 | 0.0 | 0.00 | 0.00 | 0.00 | 46 | 1019.0 |
| 20260502014557 | 49 | 281 | 2.6 | 0.0 | 0.00 | 0.00 | 0.00 | 47 | 1018.9 |
| 20260502013057 | 50 | 290 | 3.5 | 0.0 | 0.00 | 0.00 | 0.00 | 45 | 1018.8 |
| 20260502011608 | 51 | 278 | 2.6 | 0.0 | 0.00 | 0.00 | 0.00 | 43 | 1018.7 |
| 20260502010051 | 52 | 292 | 2.6 | 0.0 | 0.00 | 0.00 | 0.00 | 42 | 1018.6 |
| 20260502004601 | 53 | 292 | 0.9 | 0.0 | 0.00 | 0.00 | 0.00 | 41 | 1018.5 |
| 20260502003050 | 53 | 270 | 1.7 | 0.0 | 0.00 | 0.00 | 0.00 | 41 | 1018.5 |
| 20260502001550 | 53 | 269 | 2.6 | 0.0 | 0.00 | 0.00 | 0.00 | 39 | 1018.4 |
| 20260502000107 | 54 | 260 | 2.6 | 0.0 | 0.00 | 0.00 | 0.00 | 41 | 1018.4 |
| 20260501234549 | 54 | 267 | 2.6 | 0.0 | 0.00 | 0.00 | 0.00 | 37 | 1018.6 |
| 20260501233049 | 54 | 232 | 1.7 | 0.0 | 0.00 | 0.00 | 0.00 | 35 | 1018.6 |
| 20260501231552 | 53 | 333 | 2.6 | 0.0 | 0.00 | 0.00 | 0.00 | 40 | 1018.5 |
| 20260501230047 | 52 | 314 | 1.7 | 0.0 | 0.00 | 0.00 | 0.00 | 41 | 1018.6 |
| 20260501224554 | 52 | 16 | 2.6 | 0.0 | 0.00 | 0.00 | 0.00 | 41 | 1018.7 |
| 20260501223046 | 52 | 344 | 3.5 | 0.0 | 0.00 | 0.00 | 0.00 | 36 | 1018.8 |
| 20260501221605 | 53 | 360 | 3.5 | 0.0 | 0.00 | 0.00 | 0.00 | 36 | 1018.7 |